Mountain House, California
Current Conditions -  °F | °C
As of 5:53 AM on Thursday 23 Oct 2014 (Local Time) from KLVK Reporting Station
Clear Clear  
Wind Chill: 56°   Ceiling: Unl
Heat Index: 56°   Visibility: 10mi
Dew Point: 52°   Wind: 3mph
Humidity: 87%   Direction: 50°NE
Pressure: 30.03"   Gusts: NA
Location:  37.7582°N, 121.525°W
Report Text: KLVK 231253Z AUTO 05003KT 10SM CLR 13/11 A3003 RMK AO2 SLP167 T01330111
Loading
Personal Weather Stations






























Interactive Weather Map
Tropical Storm Tracking
New forecast layout! Learn more

10-Day Weather Forecast

Advertisements
Track Severe Weather on mobile